Time;durP1;ratioP1;P1;durP2;ratioP2;P2;SDS_P1;SDS_P2;PMS_P1;PMS_P2;Temp;Humidity;BMP_temperature;BMP_pressure;BME280_temperature;BME280_humidity;BME280_pressure;Samples;Min_cycle;Max_cycle;Signal;HPM_P1;HPM_P2
2023/03/19 00:00:36;;;;;;;7.93;4.55;;;;;12.80;98249.00;;;;5012201;28;20122;-61
2023/03/19 00:03:03;;;;;;;8.65;4.72;;;;;12.70;98248.00;;;;5012504;28;20049;-60
2023/03/19 00:05:30;;;;;;;8.85;4.18;;;;;12.70;98250.00;;;;5011283;28;20053;-59
2023/03/19 00:07:56;;;;;;;11.43;4.68;;;;;12.70;98244.00;;;;5012170;28;20049;-61
2023/03/19 00:10:23;;;;;;;7.13;4.63;;;;;12.70;98245.00;;;;5012613;28;20050;-60
2023/03/19 00:12:49;;;;;;;6.30;4.32;;;;;12.70;98241.00;;;;5012603;28;20092;-57
2023/03/19 00:15:16;;;;;;;10.45;4.63;;;;;12.80;98247.00;;;;5012211;28;20045;-58
2023/03/19 00:17:43;;;;;;;11.32;4.88;;;;;12.70;98241.00;;;;5012161;28;20110;-57
2023/03/19 00:20:11;;;;;;;7.45;5.05;;;;;12.80;98246.00;;;;5010641;28;20045;-58
2023/03/19 00:22:38;;;;;;;7.88;4.38;;;;;12.70;98251.00;;;;5016498;28;20073;-58
2023/03/19 00:25:07;;;;;;;9.70;4.70;;;;;12.70;98247.00;;;;5014746;28;20049;-61
2023/03/19 00:27:34;;;;;;;6.53;4.13;;;;;12.80;98252.00;;;;5016124;28;20100;-59
2023/03/19 00:30:01;;;;;;;9.20;5.20;;;;;12.70;98252.00;;;;5014358;28;20411;-57
2023/03/19 00:32:28;;;;;;;10.32;4.35;;;;;12.60;98253.00;;;;5016452;28;20422;-59
2023/03/19 00:34:55;;;;;;;8.68;4.30;;;;;12.60;98262.00;;;;5014727;28;20454;-56
2023/03/19 00:37:22;;;;;;;6.65;4.57;;;;;12.70;98264.00;;;;5014837;28;20049;-58
2023/03/19 00:39:49;;;;;;;9.52;4.65;;;;;12.70;98261.00;;;;5030815;28;20077;-60
2023/03/19 00:42:15;;;;;;;6.97;4.70;;;;;12.60;98256.00;;;;5015084;28;20495;-57
2023/03/19 00:44:42;;;;;;;8.05;5.20;;;;;12.50;98262.00;;;;5017738;28;20041;-62
2023/03/19 00:47:08;;;;;;;7.70;4.72;;;;;12.50;98259.00;;;;5017767;28;20069;-59
2023/03/19 00:49:35;;;;;;;8.90;4.57;;;;;12.60;98256.00;;;;5015699;28;20398;-57
2023/03/19 00:52:02;;;;;;;8.57;4.75;;;;;12.60;98263.00;;;;4998141;28;20057;-61
2023/03/19 00:54:31;;;;;;;6.97;4.38;;;;;12.60;98268.00;;;;5014593;28;20045;-58
2023/03/19 00:56:58;;;;;;;7.85;5.25;;;;;12.70;98263.00;;;;5015539;28;20096;-58
2023/03/19 00:59:25;;;;;;;8.38;5.35;;;;;12.70;98264.00;;;;5015236;28;20088;-58
2023/03/19 01:01:51;;;;;;;9.95;5.35;;;;;12.70;98265.00;;;;5014923;28;20048;-59
2023/03/19 01:04:18;;;;;;;8.25;5.10;;;;;12.60;98267.00;;;;5014073;28;20046;-57
2023/03/19 01:06:45;;;;;;;11.90;5.45;;;;;12.60;98268.00;;;;5014173;28;20061;-59
2023/03/19 01:09:11;;;;;;;8.43;5.03;;;;;12.50;98263.00;;;;5014921;28;20046;-59
2023/03/19 01:11:38;;;;;;;9.65;4.70;;;;;12.40;98265.00;;;;5013990;28;20054;-57
2023/03/19 01:14:05;;;;;;;7.10;4.18;;;;;12.40;98259.00;;;;5014098;28;20038;-61
2023/03/19 01:16:33;;;;;;;10.93;4.55;;;;;12.40;98257.00;;;;5015295;28;20398;-61
2023/03/19 01:19:01;;;;;;;10.98;5.32;;;;;12.40;98250.00;;;;5013285;28;20088;-56
2023/03/19 01:21:29;;;;;;;8.25;4.80;;;;;12.40;98268.00;;;;5013950;28;20053;-58
2023/03/19 01:23:57;;;;;;;9.20;4.60;;;;;12.50;98269.00;;;;5013827;28;20491;-57
2023/03/19 01:26:26;;;;;;;9.10;4.88;;;;;12.50;98274.00;;;;5013744;28;20053;-59
2023/03/19 01:28:57;;;;;;;9.55;4.97;;;;;12.40;98267.00;;;;5029553;28;20085;-59
2023/03/19 01:31:25;;;;;;;8.55;4.80;;;;;12.30;98263.00;;;;5013530;28;20296;-57
2023/03/19 01:34:11;;;;;;;7.35;4.63;;;;;12.40;98267.00;;;;5013720;28;20409;-59
2023/03/19 01:36:48;;;;;;;6.75;4.60;;;;;12.40;98266.00;;;;5013547;28;20053;-61
2023/03/19 01:39:20;;;;;;;7.45;4.65;;;;;12.50;98269.00;;;;5014233;28;20061;-61
2023/03/19 01:41:48;;;;;;;9.18;4.53;;;;;12.50;98270.00;;;;5013762;28;20624;-60
2023/03/19 01:44:33;;;;;;;12.40;5.65;;;;;12.40;98259.00;;;;5029873;28;20052;-60
2023/03/19 01:47:33;;;;;;;9.57;4.80;;;;;12.30;98273.00;;;;5011711;28;20586;-59
2023/03/19 01:50:29;;;;;;;7.93;4.10;;;;;12.40;98275.00;;;;5003289;28;20061;-59
2023/03/19 01:53:16;;;;;;;7.82;4.80;;;;;12.40;98263.00;;;;5013218;28;20088;-59
2023/03/19 01:55:58;;;;;;;6.88;4.15;;;;;12.40;98269.00;;;;5013229;28;20449;-60
2023/03/19 01:58:35;;;;;;;9.23;4.65;;;;;12.40;98261.00;;;;5029029;28;20050;-60
2023/03/19 02:01:33;;;;;;;7.05;4.28;;;;;12.30;98263.00;;;;5029762;28;20330;-60
2023/03/19 02:03:59;;;;;;;8.35;3.88;;;;;12.20;98264.00;;;;5029573;28;20045;-59
2023/03/19 02:06:29;;;;;;;6.95;4.50;;;;;12.20;98263.00;;;;5012889;28;20053;-58
2023/03/19 02:08:58;;;;;;;7.18;4.20;;;;;12.20;98260.00;;;;4996403;28;20498;-60
2023/03/19 02:11:25;;;;;;;10.63;4.70;;;;;12.30;98261.00;;;;5029454;28;20077;-60
2023/03/19 02:13:52;;;;;;;8.57;4.75;;;;;12.20;98267.00;;;;5012798;28;20042;-57
2023/03/19 02:16:18;;;;;;;8.13;4.43;;;;;12.10;98260.00;;;;5014057;28;20065;-62
2023/03/19 02:18:46;;;;;;;5.57;4.15;;;;;12.10;98259.00;;;;5017185;28;20069;-62
2023/03/19 02:21:18;;;;;;;6.82;4.00;;;;;12.10;98260.00;;;;5018840;28;20053;-59
2023/03/19 02:24:04;;;;;;;7.32;4.22;;;;;12.10;98260.00;;;;5012508;28;20050;-61
2023/03/19 02:26:44;;;;;;;7.72;3.83;;;;;12.00;98262.00;;;;5029203;28;20537;-60
2023/03/19 02:29:10;;;;;;;6.80;4.40;;;;;12.00;98259.00;;;;5013295;28;20041;-57
2023/03/19 02:31:37;;;;;;;8.90;4.40;;;;;12.00;98259.00;;;;5012283;28;20057;-57
2023/03/19 02:34:26;;;;;;;8.38;4.35;;;;;12.10;98266.00;;;;5012878;28;20053;-57
2023/03/19 02:36:57;;;;;;;5.53;3.75;;;;;12.00;98267.00;;;;5012524;28;20046;-56
2023/03/19 02:39:33;;;;;;;7.80;3.83;;;;;11.90;98266.00;;;;5012985;28;20046;-57
2023/03/19 02:42:01;;;;;;;10.27;4.60;;;;;11.80;98278.00;;;;5012278;28;20064;-58
2023/03/19 02:44:29;;;;;;;8.88;4.60;;;;;11.70;98282.00;;;;5028207;28;20124;-60
2023/03/19 02:46:56;;;;;;;6.93;4.35;;;;;11.60;98278.00;;;;5012302;28;20034;-59
2023/03/19 02:49:23;;;;;;;6.63;3.85;;;;;11.70;98279.00;;;;5011886;28;20406;-59
2023/03/19 02:51:50;;;;;;;5.53;4.00;;;;;11.70;98280.00;;;;5029094;28;20050;-59
2023/03/19 02:54:17;;;;;;;5.65;4.38;;;;;11.60;98283.00;;;;5013997;28;20038;-60
2023/03/19 02:56:43;;;;;;;8.68;4.65;;;;;11.50;98274.00;;;;5013917;28;20389;-57
2023/03/19 02:59:10;;;;;;;6.45;4.03;;;;;11.40;98274.00;;;;5011811;28;20053;-59
2023/03/19 03:01:37;;;;;;;9.45;4.28;;;;;11.50;98275.00;;;;5012183;28;20046;-58
2023/03/19 03:04:04;;;;;;;6.35;3.80;;;;;11.40;98278.00;;;;5012194;28;20101;-58
2023/03/19 03:06:31;;;;;;;6.93;3.95;;;;;11.50;98270.00;;;;5014244;28;20053;-59
2023/03/19 03:09:00;;;;;;;7.68;3.80;;;;;11.50;98274.00;;;;5012248;28;20056;-61
2023/03/19 03:11:27;;;;;;;7.05;3.50;;;;;11.50;98275.00;;;;5014598;28;20045;-59
2023/03/19 03:13:53;;;;;;;8.23;3.42;;;;;11.50;98282.00;;;;5012297;28;20058;-58
2023/03/19 03:16:20;;;;;;;5.97;3.45;;;;;11.60;98274.00;;;;5011891;28;20133;-59
2023/03/19 03:18:47;;;;;;;5.43;2.85;;;;;11.50;98260.00;;;;5012463;28;20430;-60
2023/03/19 03:21:14;;;;;;;6.82;2.90;;;;;11.50;98258.00;;;;5011759;28;20050;-60
2023/03/19 03:23:40;;;;;;;5.88;2.97;;;;;11.60;98258.00;;;;5011607;28;20151;-60
2023/03/19 03:26:07;;;;;;;5.18;3.10;;;;;11.70;98257.00;;;;5012701;28;20406;-60
2023/03/19 03:28:34;;;;;;;6.15;3.15;;;;;11.70;98267.00;;;;5012349;28;20418;-59
2023/03/19 03:31:01;;;;;;;8.73;4.05;;;;;11.70;98279.00;;;;5013064;28;20053;-61
2023/03/19 03:33:28;;;;;;;5.03;2.85;;;;;11.70;98274.00;;;;5011614;28;20050;-58
2023/03/19 03:35:55;;;;;;;7.95;3.50;;;;;11.60;98280.00;;;;5011485;28;20137;-61
2023/03/19 03:38:22;;;;;;;7.22;4.07;;;;;11.50;98285.00;;;;5011243;28;20141;-60
2023/03/19 03:40:51;;;;;;;5.35;3.20;;;;;11.40;98278.00;;;;5011162;28;20049;-60
2023/03/19 03:43:20;;;;;;;5.50;3.50;;;;;11.20;98286.00;;;;5011306;28;20140;-59
2023/03/19 03:45:47;;;;;;;5.18;3.20;;;;;11.10;98287.00;;;;5011327;28;20068;-58
2023/03/19 03:48:15;;;;;;;8.48;4.13;;;;;11.10;98287.00;;;;5011284;28;20434;-59
2023/03/19 03:50:42;;;;;;;9.45;4.00;;;;;11.00;98282.00;;;;5010412;28;20141;-60
2023/03/19 03:53:14;;;;;;;6.68;3.20;;;;;11.10;98288.00;;;;5011214;28;20045;-60
2023/03/19 03:55:41;;;;;;;5.20;3.47;;;;;11.20;98284.00;;;;5010652;28;20042;-59
2023/03/19 03:58:08;;;;;;;5.22;3.42;;;;;11.20;98281.00;;;;5011339;28;20049;-59
2023/03/19 04:00:35;;;;;;;6.43;3.67;;;;;11.20;98282.00;;;;5011982;28;20056;-61
2023/03/19 04:03:02;;;;;;;3.65;2.97;;;;;11.10;98293.00;;;;5011167;28;20077;-60
2023/03/19 04:05:29;;;;;;;6.05;3.25;;;;;11.10;98291.00;;;;5011130;28;20127;-59
2023/03/19 04:07:57;;;;;;;8.10;3.58;;;;;11.20;98287.00;;;;5011370;28;20510;-60
2023/03/19 04:10:24;;;;;;;6.43;3.20;;;;;11.10;98290.00;;;;5010638;28;20088;-59
2023/03/19 04:12:51;;;;;;;4.93;3.05;;;;;11.10;98295.00;;;;5011091;28;20049;-58
2023/03/19 04:15:18;;;;;;;4.85;2.80;;;;;11.00;98296.00;;;;5011220;28;20049;-59
2023/03/19 04:17:46;;;;;;;4.80;3.40;;;;;11.10;98306.00;;;;5010864;28;20085;-61
2023/03/19 04:20:16;;;;;;;4.63;2.92;;;;;11.00;98297.00;;;;5010281;28;20537;-60
2023/03/19 04:22:44;;;;;;;5.38;3.25;;;;;10.90;98304.00;;;;4994636;28;20053;-60
2023/03/19 04:25:10;;;;;;;7.75;3.20;;;;;10.90;98311.00;;;;5010709;28;20042;-59
2023/03/19 04:27:38;;;;;;;6.43;3.08;;;;;11.00;98300.00;;;;5027354;28;20046;-58
2023/03/19 04:30:08;;;;;;;5.18;3.00;;;;;11.00;98317.00;;;;5011355;28;20042;-60
2023/03/19 04:32:36;;;;;;;5.18;3.20;;;;;11.00;98311.00;;;;5010878;28;20046;-60
2023/03/19 04:35:03;;;;;;;4.20;2.72;;;;;11.10;98312.00;;;;5012295;28;20560;-61
2023/03/19 04:37:30;;;;;;;5.55;3.83;;;;;11.00;98301.00;;;;5011042;28;20137;-60
2023/03/19 04:39:56;;;;;;;4.50;3.17;;;;;11.10;98308.00;;;;5013261;28;20048;-60
2023/03/19 04:42:23;;;;;;;3.78;2.60;;;;;11.10;98304.00;;;;5014885;28;20042;-60
2023/03/19 04:45:07;;;;;;;6.28;3.13;;;;;11.10;98311.00;;;;5010727;28;20089;-59
2023/03/19 04:47:34;;;;;;;4.13;2.80;;;;;11.10;98309.00;;;;5010836;28;20046;-59
2023/03/19 04:50:01;;;;;;;5.63;2.90;;;;;11.10;98310.00;;;;5011429;28;20120;-59
2023/03/19 04:52:32;;;;;;;7.72;3.50;;;;;11.10;98308.00;;;;5010949;28;20434;-60
2023/03/19 04:54:59;;;;;;;5.53;2.95;;;;;11.00;98303.00;;;;5010683;28;20145;-59
2023/03/19 04:57:25;;;;;;;9.65;2.97;;;;;10.80;98300.00;;;;5010575;28;20054;-59
2023/03/19 04:59:54;;;;;;;4.82;2.75;;;;;10.60;98316.00;;;;5010436;28;20069;-59
2023/03/19 05:02:22;;;;;;;5.88;2.90;;;;;10.60;98316.00;;;;5010652;28;20481;-59
2023/03/19 05:04:49;;;;;;;7.75;3.38;;;;;10.50;98316.00;;;;5011562;28;20498;-59
2023/03/19 05:07:16;;;;;;;5.15;3.10;;;;;10.40;98315.00;;;;5014850;28;20128;-59
2023/03/19 05:09:45;;;;;;;6.40;3.50;;;;;10.40;98309.00;;;;5014074;28;20042;-59
2023/03/19 05:12:12;;;;;;;6.05;3.10;;;;;10.30;98310.00;;;;5015613;28;20418;-60
2023/03/19 05:14:46;;;;;;;;;;;;;10.20;98322.00;;;;5021126;28;20052;-60
2023/03/19 05:17:21;;;;;;;5.13;2.72;;;;;10.20;98319.00;;;;5035469;28;19922;-62
2023/03/19 05:20:03;;;;;;;5.65;2.70;;;;;10.10;98306.00;;;;5018928;28;20126;-62
2023/03/19 05:22:33;;;;;;;5.75;3.20;;;;;10.00;98323.00;;;;5018912;28;20065;-60
2023/03/19 05:24:59;;;;;;;4.78;2.65;;;;;9.90;98319.00;;;;5018885;28;20061;-61
2023/03/19 05:27:28;;;;;;;4.78;3.00;;;;;10.00;98323.00;;;;5019195;28;20076;-62
2023/03/19 05:30:05;;;;;;;5.43;3.20;;;;;10.00;98316.00;;;;5017400;28;20148;-62
2023/03/19 05:32:51;;;;;;;6.10;3.25;;;;;10.00;98319.00;;;;5019590;28;20056;-61
2023/03/19 05:35:39;;;;;;;4.75;2.88;;;;;10.10;98323.00;;;;5018620;28;20054;-60
2023/03/19 05:38:14;;;;;;;3.88;2.72;;;;;10.10;98323.00;;;;5002618;28;20112;-61
2023/03/19 05:40:44;;;;;;;4.82;3.10;;;;;10.10;98323.00;;;;5013799;28;20057;-58
2023/03/19 05:43:21;;;;;;;5.40;2.90;;;;;10.20;98323.00;;;;5013596;28;20053;-60
2023/03/19 05:45:53;;;;;;;6.82;2.90;;;;;10.00;98320.00;;;;5013395;28;20345;-58
2023/03/19 05:48:24;;;;;;;5.65;2.92;;;;;9.90;98323.00;;;;5014291;28;20096;-59
2023/03/19 05:50:51;;;;;;;4.90;2.65;;;;;9.80;98317.00;;;;5013340;28;20049;-59
2023/03/19 05:53:21;;;;;;;5.18;2.60;;;;;9.90;98328.00;;;;5013185;28;20053;-59
2023/03/19 05:56:08;;;;;;;3.88;2.72;;;;;10.00;98331.00;;;;5013114;28;20046;-58
2023/03/19 05:58:50;;;;;;;5.63;2.80;;;;;10.00;98335.00;;;;5012910;28;20077;-58
2023/03/19 06:01:21;;;;;;;5.50;3.38;;;;;9.90;98328.00;;;;5012848;28;20080;-59
2023/03/19 06:03:48;;;;;;;4.97;2.95;;;;;9.80;98340.00;;;;5013109;28;20045;-57
2023/03/19 06:06:16;;;;;;;5.90;3.22;;;;;9.80;98338.00;;;;5013190;28;20053;-61
2023/03/19 06:08:44;;;;;;;9.35;2.97;;;;;9.80;98328.00;;;;5012661;28;20053;-59
2023/03/19 06:11:15;;;;;;;6.80;3.40;;;;;9.90;98339.00;;;;5013079;28;20144;-57
2023/03/19 06:13:47;;;;;;;5.05;3.15;;;;;10.00;98340.00;;;;5013034;28;20041;-57
2023/03/19 06:16:15;;;;;;;6.10;3.13;;;;;10.00;98337.00;;;;5014089;28;20069;-57
2023/03/19 06:18:49;;;;;;;9.15;5.07;;;;;10.00;98342.00;;;;5011624;28;20049;-57
2023/03/19 06:21:16;;;;;;;5.20;3.20;;;;;10.00;98340.00;;;;5029135;28;20104;-59
2023/03/19 06:23:43;;;;;;;7.00;5.18;;;;;10.00;98343.00;;;;5013990;28;20046;-57
2023/03/19 06:26:13;;;;;;;23.65;16.05;;;;;9.90;98345.00;;;;5031356;28;20042;-62
2023/03/19 06:28:45;;;;;;;19.42;14.13;;;;;10.00;98351.00;;;;5014525;28;20399;-62
2023/03/19 06:31:13;;;;;;;7.63;5.75;;;;;10.30;98360.00;;;;5014728;28;20462;-62
2023/03/19 06:33:56;;;;;;;9.80;7.18;;;;;10.40;98363.00;;;;5015243;28;20065;-61
2023/03/19 06:36:29;;;;;;;8.85;4.90;;;;;10.50;98360.00;;;;5014774;28;20570;-63
2023/03/19 06:38:56;;;;;;;6.07;3.65;;;;;10.40;98353.00;;;;5014051;28;20042;-63
2023/03/19 06:41:24;;;;;;;5.95;3.80;;;;;10.60;98362.00;;;;5017074;28;20073;-62
2023/03/19 06:43:52;;;;;;;10.00;3.83;;;;;10.60;98365.00;;;;5015709;28;20046;-63
2023/03/19 06:46:18;;;;;;;5.53;3.95;;;;;10.90;98374.00;;;;5017370;28;20046;-60
2023/03/19 06:48:45;;;;;;;13.65;8.57;;;;;11.00;98365.00;;;;5017087;28;20049;-62
2023/03/19 06:51:12;;;;;;;12.88;7.25;;;;;11.10;98366.00;;;;5017242;28;20558;-62
2023/03/19 06:53:38;;;;;;;8.18;4.85;;;;;11.10;98368.00;;;;5017071;28;20421;-63
2023/03/19 06:56:05;;;;;;;6.45;5.00;;;;;11.20;98363.00;;;;5012699;28;20124;-61
2023/03/19 06:58:32;;;;;;;21.67;16.17;;;;;11.20;98364.00;;;;5012802;28;20041;-60
2023/03/19 07:00:58;;;;;;;9.05;6.72;;;;;11.10;98374.00;;;;5011891;28;20042;-58
2023/03/19 07:03:25;;;;;;;12.73;8.85;;;;;11.00;98368.00;;;;5013158;28;20107;-60
2023/03/19 07:05:52;;;;;;;13.07;11.73;;;;;11.00;98369.00;;;;5013020;28;20479;-60
2023/03/19 07:08:19;;;;;;;19.67;12.32;;;;;11.10;98377.00;;;;5012249;28;20393;-59
2023/03/19 07:10:45;;;;;;;7.57;5.53;;;;;11.10;98376.00;;;;5012785;28;20054;-61
2023/03/19 07:13:12;;;;;;;6.15;4.13;;;;;11.20;98370.00;;;;5013329;28;20533;-61
2023/03/19 07:15:39;;;;;;;6.75;4.45;;;;;11.20;98376.00;;;;5012370;28;20069;-60
2023/03/19 07:18:05;;;;;;;14.75;9.88;;;;;11.30;98380.00;;;;5013131;28;20099;-59
2023/03/19 07:20:32;;;;;;;12.55;6.25;;;;;11.40;98392.00;;;;5012636;28;20465;-60
2023/03/19 07:22:59;;;;;;;10.68;6.43;;;;;11.60;98393.00;;;;5014258;28;20037;-60
2023/03/19 07:25:25;;;;;;;8.68;5.30;;;;;11.70;98401.00;;;;5012947;28;20273;-59
2023/03/19 07:27:52;;;;;;;8.45;5.60;;;;;11.90;98401.00;;;;5012918;28;20093;-60
2023/03/19 07:30:21;;;;;;;12.88;7.07;;;;;12.00;98396.00;;;;5012220;28;20116;-59
2023/03/19 07:32:48;;;;;;;16.27;8.80;;;;;12.00;98399.00;;;;5012835;28;20053;-59
2023/03/19 07:35:14;;;;;;;9.93;6.32;;;;;11.90;98392.00;;;;5012712;28;20117;-58
2023/03/19 07:37:41;;;;;;;11.10;7.18;;;;;12.00;98403.00;;;;5012568;28;20088;-59
2023/03/19 07:40:09;;;;;;;81.05;57.00;;;;;12.10;98400.00;;;;5012348;28;20050;-59
2023/03/19 07:42:35;;;;;;;91.00;73.40;;;;;12.20;98400.00;;;;5012615;28;20064;-59
2023/03/19 07:45:03;;;;;;;36.60;26.98;;;;;12.30;98404.00;;;;5012595;28;20042;-59
2023/03/19 07:47:30;;;;;;;24.38;17.73;;;;;12.40;98395.00;;;;5012659;28;20118;-59
2023/03/19 07:49:57;;;;;;;13.30;8.50;;;;;12.50;98384.00;;;;5012083;28;20046;-60
2023/03/19 07:52:24;;;;;;;8.52;6.68;;;;;12.60;98393.00;;;;5012461;28;20050;-60
2023/03/19 07:54:51;;;;;;;13.82;9.02;;;;;12.70;98394.00;;;;5012558;28;20042;-60
2023/03/19 07:57:18;;;;;;;9.60;6.65;;;;;12.80;98393.00;;;;5012709;28;20041;-58
2023/03/19 07:59:45;;;;;;;8.93;6.32;;;;;13.00;98391.00;;;;5011350;28;20069;-59
2023/03/19 08:02:12;;;;;;;12.63;9.55;;;;;13.00;98397.00;;;;5013054;28;20125;-57
2023/03/19 08:04:40;;;;;;;13.02;9.05;;;;;13.20;98399.00;;;;5011557;28;20057;-60
2023/03/19 08:07:09;;;;;;;9.77;6.50;;;;;13.30;98396.00;;;;4995078;28;20057;-59
2023/03/19 08:09:36;;;;;;;8.02;5.10;;;;;13.40;98389.00;;;;5011513;28;20045;-59
2023/03/19 08:12:03;;;;;;;5.82;4.63;;;;;13.60;98393.00;;;;5012934;28;20125;-58
2023/03/19 08:14:30;;;;;;;6.95;4.80;;;;;13.60;98392.00;;;;5012950;28;20414;-58
2023/03/19 08:16:56;;;;;;;7.18;4.85;;;;;13.70;98407.00;;;;5015955;28;20121;-60
2023/03/19 08:19:23;;;;;;;7.93;4.97;;;;;13.80;98406.00;;;;5017040;28;20065;-61
2023/03/19 08:21:50;;;;;;;6.88;4.55;;;;;13.90;98394.00;;;;5016605;28;20053;-61
2023/03/19 08:24:17;;;;;;;7.75;4.38;;;;;14.00;98403.00;;;;5017517;28;20133;-59
2023/03/19 08:26:45;;;;;;;7.47;3.38;;;;;14.30;98397.00;;;;5013098;28;20066;-60
2023/03/19 08:29:11;;;;;;;7.70;3.78;;;;;14.50;98396.00;;;;4994766;28;20045;-59
2023/03/19 08:31:38;;;;;;;4.97;3.38;;;;;14.70;98399.00;;;;5013748;28;20051;-61
2023/03/19 08:34:06;;;;;;;7.40;3.40;;;;;14.90;98400.00;;;;5015274;28;20045;-59
2023/03/19 08:36:33;;;;;;;6.57;3.67;;;;;15.00;98404.00;;;;5015889;28;20045;-57
2023/03/19 08:39:00;;;;;;;6.75;3.17;;;;;15.20;98406.00;;;;5011867;28;20053;-59
2023/03/19 08:41:26;;;;;;;7.57;3.50;;;;;15.30;98406.00;;;;5011719;28;20045;-61
2023/03/19 08:43:53;;;;;;;8.75;3.60;;;;;15.30;98404.00;;;;5022574;28;20095;-60
2023/03/19 08:46:20;;;;;;;5.80;2.92;;;;;15.30;98405.00;;;;5021189;28;20556;-63
2023/03/19 08:48:46;;;;;;;6.00;3.03;;;;;15.40;98404.00;;;;5019782;28;20046;-62
2023/03/19 08:51:13;;;;;;;6.15;2.60;;;;;15.50;98405.00;;;;5024125;28;20384;-62
2023/03/19 08:53:40;;;;;;;6.13;3.88;;;;;15.50;98411.00;;;;5021082;28;20100;-63
2023/03/19 08:56:07;;;;;;;6.40;2.78;;;;;15.60;98413.00;;;;5023548;28;20038;-61
2023/03/19 08:58:33;;;;;;;5.57;3.20;;;;;15.70;98411.00;;;;5024826;28;20102;-61
2023/03/19 09:01:05;;;;;;;8.15;3.53;;;;;15.70;98420.00;;;;5026548;28;20475;-59
2023/03/19 09:03:32;;;;;;;4.28;2.80;;;;;15.70;98420.00;;;;5021419;28;20565;-61
2023/03/19 09:06:00;;;;;;;6.30;2.90;;;;;15.70;98423.00;;;;5024649;28;20060;-60
2023/03/19 09:08:28;;;;;;;3.45;2.80;;;;;15.80;98425.00;;;;5023680;28;20053;-61
2023/03/19 09:10:55;;;;;;;4.00;3.15;;;;;15.80;98420.00;;;;5025519;28;20041;-59
2023/03/19 09:13:23;;;;;;;3.95;2.78;;;;;15.80;98420.00;;;;5025153;28;20092;-59
2023/03/19 09:15:50;;;;;;;4.32;2.85;;;;;15.80;98426.00;;;;5024896;28;20050;-62
2023/03/19 09:18:19;;;;;;;8.80;2.78;;;;;15.80;98429.00;;;;5021408;28;20046;-61
2023/03/19 09:20:46;;;;;;;5.85;3.22;;;;;15.80;98428.00;;;;5005169;28;20054;-62
2023/03/19 09:23:13;;;;;;;6.13;2.90;;;;;15.90;98433.00;;;;5026420;28;20092;-60
2023/03/19 09:25:40;;;;;;;4.70;3.13;;;;;16.10;98428.00;;;;5026625;28;20046;-62
2023/03/19 09:28:06;;;;;;;5.30;2.75;;;;;16.20;98430.00;;;;5026587;28;20045;-61
2023/03/19 09:30:33;;;;;;;4.63;2.90;;;;;16.40;98437.00;;;;5023346;28;20049;-59
2023/03/19 09:33:00;;;;;;;5.03;3.05;;;;;16.60;98426.00;;;;5025335;28;20056;-59
2023/03/19 09:35:30;;;;;;;3.67;2.80;;;;;16.60;98426.00;;;;5025967;28;20046;-60
2023/03/19 09:37:57;;;;;;;5.03;2.85;;;;;16.70;98432.00;;;;5024580;28;20073;-61
2023/03/19 09:40:38;;;;;;;5.20;2.55;;;;;17.10;98441.00;;;;5023576;28;20414;-62
2023/03/19 09:43:31;;;;;;;6.53;3.92;;;;;17.40;98436.00;;;;5024121;28;20046;-62
2023/03/19 09:46:00;;;;;;;4.25;3.05;;;;;17.70;98440.00;;;;5024577;28;20041;-60
2023/03/19 09:49:03;;;;;;;6.40;3.33;;;;;17.70;98440.00;;;;5017848;28;20517;-59
2023/03/19 09:51:42;;;;;;;5.35;3.40;;;;;17.80;98441.00;;;;5015782;28;20491;-59
2023/03/19 09:54:32;;;;;;;8.00;3.33;;;;;18.00;98445.00;;;;5015215;28;20052;-59
2023/03/19 09:56:59;;;;;;;5.55;3.13;;;;;18.10;98452.00;;;;5018828;28;20081;-59
2023/03/19 09:59:27;;;;;;;5.47;2.80;;;;;18.00;98449.00;;;;5014889;28;20140;-59
2023/03/19 10:02:22;;;;;;;5.63;2.60;;;;;17.90;98452.00;;;;5016017;28;20125;-62
2023/03/19 10:05:06;;;;;;;4.20;3.13;;;;;17.80;98447.00;;;;5019280;28;20396;-58
2023/03/19 10:07:46;;;;;;;3.55;2.67;;;;;17.70;98454.00;;;;5019358;28;20066;-61
2023/03/19 10:10:36;;;;;;;4.90;2.40;;;;;17.50;98447.00;;;;5022755;28;20566;-60
2023/03/19 10:13:40;;;;;;;5.53;2.55;;;;;17.30;98458.00;;;;5017259;28;20049;-60
2023/03/19 10:16:15;;;;;;;3.30;2.67;;;;;17.00;98451.00;;;;5014265;28;20133;-60
2023/03/19 10:18:48;;;;;;;3.58;2.55;;;;;16.80;98453.00;;;;5015868;28;20693;-62
2023/03/19 10:21:21;;;;;;;6.38;2.22;;;;;16.70;98461.00;;;;5016535;28;20056;-61
2023/03/19 10:23:56;;;;;;;4.75;3.08;;;;;16.50;98455.00;;;;5018506;28;20073;-58
2023/03/19 10:26:34;;;;;;;4.45;2.80;;;;;16.30;98464.00;;;;5016576;28;20048;-59
2023/03/19 10:29:22;;;;;;;4.60;3.08;;;;;16.10;98463.00;;;;5014956;28;20069;-63
2023/03/19 10:32:04;;;;;;;4.90;2.83;;;;;15.90;98470.00;;;;5014229;28;20045;-60
2023/03/19 10:34:36;;;;;;;5.53;2.58;;;;;15.80;98477.00;;;;4997539;28;20345;-58
2023/03/19 10:37:21;;;;;;;3.95;2.20;;;;;15.60;98471.00;;;;5014462;28;20064;-59
2023/03/19 10:39:50;;;;;;;4.57;2.78;;;;;15.30;98477.00;;;;5015113;28;20521;-60
2023/03/19 10:42:26;;;;;;;6.05;2.92;;;;;15.20;98477.00;;;;5015182;28;20042;-60
2023/03/19 10:45:00;;;;;;;8.60;3.35;;;;;15.10;98472.00;;;;5014091;28;20552;-58
2023/03/19 10:47:27;;;;;;;5.25;3.05;;;;;14.90;98477.00;;;;5013447;28;20505;-56
2023/03/19 10:49:56;;;;;;;4.63;2.47;;;;;14.90;98486.00;;;;5012387;28;20122;-62
2023/03/19 10:52:35;;;;;;;6.20;3.20;;;;;14.80;98482.00;;;;5016542;28;20104;-63
2023/03/19 10:55:12;;;;;;;5.05;3.33;;;;;14.70;98484.00;;;;5017655;28;20050;-59
2023/03/19 10:57:42;;;;;;;5.60;3.05;;;;;14.70;98487.00;;;;5012360;28;20046;-59
2023/03/19 11:00:17;;;;;;;4.95;3.65;;;;;14.70;98479.00;;;;5011515;28;20140;-60
2023/03/19 11:02:52;;;;;;;4.60;3.42;;;;;14.70;98486.00;;;;5013475;28;20498;-60
2023/03/19 11:05:30;;;;;;;5.80;3.28;;;;;14.70;98487.00;;;;5013004;28;20049;-60
2023/03/19 11:08:00;;;;;;;6.22;3.05;;;;;14.70;98484.00;;;;5028573;28;20068;-60
2023/03/19 11:10:30;;;;;;;5.40;3.38;;;;;14.80;98484.00;;;;5017579;28;20038;-60
2023/03/19 11:12:59;;;;;;;4.72;3.10;;;;;14.80;98486.00;;;;5012329;28;20048;-60
2023/03/19 11:15:35;;;;;;;3.80;3.08;;;;;14.70;98495.00;;;;5013365;28;20057;-60
2023/03/19 11:18:15;;;;;;;5.85;3.22;;;;;14.70;98491.00;;;;5015308;28;20124;-61
2023/03/19 11:20:49;;;;;;;7.13;3.50;;;;;14.70;98490.00;;;;5016796;28;20038;-60
2023/03/19 11:23:16;;;;;;;13.38;8.32;;;;;14.70;98501.00;;;;5020123;28;20061;-59
2023/03/19 11:25:52;;;;;;;7.30;3.95;;;;;14.70;98490.00;;;;5019114;28;20038;-60
2023/03/19 11:28:25;;;;;;;6.80;2.92;;;;;14.60;98501.00;;;;5018912;28;20033;-60
2023/03/19 11:31:17;;;;;;;4.43;2.97;;;;;14.50;98500.00;;;;5019625;28;20072;-62
2023/03/19 11:33:59;;;;;;;6.10;3.45;;;;;14.40;98498.00;;;;5019328;28;20048;-60
2023/03/19 11:36:47;;;;;;;3.95;2.97;;;;;14.20;98497.00;;;;5018917;28;20041;-60
2023/03/19 11:39:16;;;;;;;5.45;3.00;;;;;14.00;98504.00;;;;5018078;28;20041;-59
2023/03/19 11:41:48;;;;;;;3.53;2.72;;;;;14.00;98491.00;;;;5019413;28;20050;-60
2023/03/19 11:44:21;;;;;;;4.93;3.00;;;;;14.00;98492.00;;;;5018895;28;20053;-61
2023/03/19 11:47:10;;;;;;;4.95;2.92;;;;;14.10;98493.00;;;;5016922;28;20042;-60
2023/03/19 11:50:17;;;;;;;4.40;3.50;;;;;14.20;98503.00;;;;5016037;28;20515;-60
2023/03/19 11:53:13;;;;;;;2.80;2.50;;;;;14.30;98492.00;;;;5016371;28;20348;-60
2023/03/19 11:55:47;;;;;;;4.20;2.95;;;;;14.20;98493.00;;;;5015894;28;20065;-60
2023/03/19 11:58:49;;;;;;;4.50;3.05;;;;;14.20;98492.00;;;;5016102;28;20037;-60
2023/03/19 12:01:19;;;;;;;9.27;4.00;;;;;14.10;98487.00;;;;5031004;28;20057;-59
2023/03/19 12:03:49;;;;;;;5.72;4.20;;;;;14.10;98499.00;;;;5016181;28;20056;-59
2023/03/19 12:06:33;;;;;;;4.78;3.00;;;;;14.10;98495.00;;;;5015224;28;20497;-61
2023/03/19 12:09:06;;;;;;;5.50;3.30;;;;;14.10;98487.00;;;;5019674;28;20057;-62
2023/03/19 12:11:47;;;;;;;4.93;2.90;;;;;14.20;98492.00;;;;5035476;28;20045;-61
2023/03/19 12:14:51;;;;;;;5.70;3.67;;;;;14.30;98484.00;;;;5003086;28;20053;-62
2023/03/19 12:17:45;;;;;;;6.65;3.30;;;;;14.50;98483.00;;;;5022852;28;20041;-62
2023/03/19 12:20:31;;;;;;;7.40;4.28;;;;;14.50;98482.00;;;;5023674;28;20050;-61
2023/03/19 12:23:31;;;;;;;5.65;3.67;;;;;14.50;98485.00;;;;5025400;28;20056;-61
2023/03/19 12:26:03;;;;;;;5.30;3.38;;;;;14.40;98490.00;;;;5028348;28;20033;-62
2023/03/19 12:28:50;;;;;;;5.35;3.40;;;;;14.40;98498.00;;;;5027137;28;20049;-62
2023/03/19 12:31:20;;;;;;;4.65;3.30;;;;;14.20;98493.00;;;;5040413;28;20064;-61
2023/03/19 12:34:15;;;;;;;4.85;2.88;;;;;14.00;98501.00;;;;5018658;28;20068;-59
2023/03/19 12:37:11;;;;;;;3.75;2.85;;;;;13.90;98493.00;;;;5016628;28;20096;-59